sensor_id;sensor_type;location;lat;lon;timestamp;temperature;humidity
6930;DHT22;3504;52.616;13.238;2024-02-16T00:02:35;11.22;86.16
6930;DHT22;3504;52.616;13.238;2024-02-16T00:07:38;11.17;86.39
6930;DHT22;3504;52.616;13.238;2024-02-16T00:12:38;11.10;86.42
6930;DHT22;3504;52.616;13.238;2024-02-16T00:17:43;11.05;86.51
6930;DHT22;3504;52.616;13.238;2024-02-16T00:22:43;10.99;86.66
6930;DHT22;3504;52.616;13.238;2024-02-16T00:27:44;10.97;86.53
6930;DHT22;3504;52.616;13.238;2024-02-16T00:32:44;10.96;86.40
6930;DHT22;3504;52.616;13.238;2024-02-16T00:37:48;10.88;86.57
6930;DHT22;3504;52.616;13.238;2024-02-16T00:42:48;10.86;86.47
6930;DHT22;3504;52.616;13.238;2024-02-16T00:47:49;10.84;86.52
6930;DHT22;3504;52.616;13.238;2024-02-16T00:52:49;10.78;86.51
6930;DHT22;3504;52.616;13.238;2024-02-16T00:57:50;10.75;86.55
6930;DHT22;3504;52.616;13.238;2024-02-16T01:02:51;10.71;86.48
6930;DHT22;3504;52.616;13.238;2024-02-16T01:07:52;10.68;86.59
6930;DHT22;3504;52.616;13.238;2024-02-16T01:12:53;10.67;86.56
6930;DHT22;3504;52.616;13.238;2024-02-16T01:17:56;10.65;86.57
6930;DHT22;3504;52.616;13.238;2024-02-16T01:22:57;10.60;86.47
6930;DHT22;3504;52.616;13.238;2024-02-16T01:27:58;10.60;86.50
6930;DHT22;3504;52.616;13.238;2024-02-16T01:32:59;10.54;86.43
6930;DHT22;3504;52.616;13.238;2024-02-16T01:37:59;10.48;86.47
6930;DHT22;3504;52.616;13.238;2024-02-16T01:43:01;10.45;86.67
6930;DHT22;3504;52.616;13.238;2024-02-16T01:48:02;10.44;86.76
6930;DHT22;3504;52.616;13.238;2024-02-16T01:53:03;10.40;86.75
6930;DHT22;3504;52.616;13.238;2024-02-16T01:58:04;10.40;86.76
6930;DHT22;3504;52.616;13.238;2024-02-16T02:03:05;10.37;86.88
6930;DHT22;3504;52.616;13.238;2024-02-16T02:08:10;10.33;86.80
6930;DHT22;3504;52.616;13.238;2024-02-16T02:13:11;10.28;86.90
6930;DHT22;3504;52.616;13.238;2024-02-16T02:18:11;10.27;86.87
6930;DHT22;3504;52.616;13.238;2024-02-16T02:23:12;10.27;86.93
6930;DHT22;3504;52.616;13.238;2024-02-16T02:28:13;10.24;86.78
6930;DHT22;3504;52.616;13.238;2024-02-16T02:33:14;10.23;86.76
6930;DHT22;3504;52.616;13.238;2024-02-16T02:38:14;10.24;86.64
6930;DHT22;3504;52.616;13.238;2024-02-16T02:43:15;10.24;86.68
6930;DHT22;3504;52.616;13.238;2024-02-16T02:48:18;10.25;86.39
6930;DHT22;3504;52.616;13.238;2024-02-16T02:53:19;10.24;86.41
6930;DHT22;3504;52.616;13.238;2024-02-16T02:58:19;10.23;86.33
6930;DHT22;3504;52.616;13.238;2024-02-16T03:03:20;10.20;86.34
6930;DHT22;3504;52.616;13.238;2024-02-16T03:08:22;10.17;86.17
6930;DHT22;3504;52.616;13.238;2024-02-16T03:13:22;10.13;86.20
6930;DHT22;3504;52.616;13.238;2024-02-16T03:18:23;10.06;86.53
6930;DHT22;3504;52.616;13.238;2024-02-16T03:23:24;10.00;86.58
6930;DHT22;3504;52.616;13.238;2024-02-16T03:28:25;9.97;86.82
6930;DHT22;3504;52.616;13.238;2024-02-16T03:33:25;9.96;86.70
6930;DHT22;3504;52.616;13.238;2024-02-16T03:38:26;9.93;86.75
6930;DHT22;3504;52.616;13.238;2024-02-16T03:43:26;9.99;86.70
6930;DHT22;3504;52.616;13.238;2024-02-16T03:48:27;10.00;86.63
6930;DHT22;3504;52.616;13.238;2024-02-16T03:53:28;9.99;86.44
6930;DHT22;3504;52.616;13.238;2024-02-16T03:58:30;9.93;86.45
6930;DHT22;3504;52.616;13.238;2024-02-16T04:03:31;9.94;86.57
6930;DHT22;3504;52.616;13.238;2024-02-16T04:08:32;9.94;86.51
6930;DHT22;3504;52.616;13.238;2024-02-16T04:13:32;9.89;86.49
6930;DHT22;3504;52.616;13.238;2024-02-16T04:18:33;9.90;86.39
6930;DHT22;3504;52.616;13.238;2024-02-16T04:23:33;9.89;86.49
6930;DHT22;3504;52.616;13.238;2024-02-16T04:28:35;9.83;86.58
6930;DHT22;3504;52.616;13.238;2024-02-16T04:33:35;9.83;86.57
6930;DHT22;3504;52.616;13.238;2024-02-16T04:38:36;9.82;86.47
6930;DHT22;3504;52.616;13.238;2024-02-16T04:43:36;9.81;86.52
6930;DHT22;3504;52.616;13.238;2024-02-16T04:48:37;9.83;86.47
6930;DHT22;3504;52.616;13.238;2024-02-16T04:53:38;9.79;86.50
6930;DHT22;3504;52.616;13.238;2024-02-16T04:58:42;9.81;86.41
6930;DHT22;3504;52.616;13.238;2024-02-16T05:03:42;9.78;86.38
6930;DHT22;3504;52.616;13.238;2024-02-16T05:08:43;9.79;86.56
6930;DHT22;3504;52.616;13.238;2024-02-16T05:13:43;9.74;86.33
6930;DHT22;3504;52.616;13.238;2024-02-16T05:18:44;9.70;86.22
6930;DHT22;3504;52.616;13.238;2024-02-16T05:23:47;9.70;86.29
6930;DHT22;3504;52.616;13.238;2024-02-16T05:28:48;9.67;86.30
6930;DHT22;3504;52.616;13.238;2024-02-16T05:33:51;9.61;86.43
6930;DHT22;3504;52.616;13.238;2024-02-16T05:38:51;9.58;86.54
6930;DHT22;3504;52.616;13.238;2024-02-16T05:43:55;9.61;86.43
6930;DHT22;3504;52.616;13.238;2024-02-16T05:48:55;9.62;86.39
6930;DHT22;3504;52.616;13.238;2024-02-16T05:53:56;9.58;86.30
6930;DHT22;3504;52.616;13.238;2024-02-16T05:58:56;9.53;86.43
6930;DHT22;3504;52.616;13.238;2024-02-16T06:03:57;9.52;86.67
6930;DHT22;3504;52.616;13.238;2024-02-16T06:08:57;9.56;86.65
6930;DHT22;3504;52.616;13.238;2024-02-16T06:13:59;9.55;86.64
6930;DHT22;3504;52.616;13.238;2024-02-16T06:19:01;9.59;86.66
6930;DHT22;3504;52.616;13.238;2024-02-16T06:24:02;9.65;86.54
6930;DHT22;3504;52.616;13.238;2024-02-16T06:29:02;9.65;86.37
6930;DHT22;3504;52.616;13.238;2024-02-16T06:34:03;9.66;86.33
6930;DHT22;3504;52.616;13.238;2024-02-16T06:39:03;9.63;86.26
6930;DHT22;3504;52.616;13.238;2024-02-16T06:44:05;9.65;86.10
6930;DHT22;3504;52.616;13.238;2024-02-16T06:49:05;9.61;86.29
6930;DHT22;3504;52.616;13.238;2024-02-16T06:54:06;9.63;86.36
6930;DHT22;3504;52.616;13.238;2024-02-16T06:59:07;9.69;86.18
6930;DHT22;3504;52.616;13.238;2024-02-16T07:04:09;9.69;86.19
6930;DHT22;3504;52.616;13.238;2024-02-16T07:09:10;9.69;86.31
6930;DHT22;3504;52.616;13.238;2024-02-16T07:14:12;9.74;86.26
6930;DHT22;3504;52.616;13.238;2024-02-16T07:19:13;9.83;86.21
6930;DHT22;3504;52.616;13.238;2024-02-16T07:24:13;9.89;86.00
6930;DHT22;3504;52.616;13.238;2024-02-16T07:29:15;9.99;85.89
6930;DHT22;3504;52.616;13.238;2024-02-16T07:34:16;10.07;85.53
6930;DHT22;3504;52.616;13.238;2024-02-16T07:39:17;10.18;85.44
6930;DHT22;3504;52.616;13.238;2024-02-16T07:44:17;10.34;85.26
6930;DHT22;3504;52.616;13.238;2024-02-16T07:49:18;10.44;84.79
6930;DHT22;3504;52.616;13.238;2024-02-16T07:54:19;10.51;84.47
6930;DHT22;3504;52.616;13.238;2024-02-16T07:59:19;10.68;84.53
6930;DHT22;3504;52.616;13.238;2024-02-16T08:04:20;10.79;83.83
6930;DHT22;3504;52.616;13.238;2024-02-16T08:09:20;10.93;83.17
6930;DHT22;3504;52.616;13.238;2024-02-16T08:14:21;11.09;83.07
6930;DHT22;3504;52.616;13.238;2024-02-16T08:19:21;11.26;82.56
6930;DHT22;3504;52.616;13.238;2024-02-16T08:24:21;11.36;81.58
6930;DHT22;3504;52.616;13.238;2024-02-16T08:29:22;11.40;81.47
6930;DHT22;3504;52.616;13.238;2024-02-16T08:34:22;11.48;81.57
6930;DHT22;3504;52.616;13.238;2024-02-16T08:39:26;11.47;81.15
6930;DHT22;3504;52.616;13.238;2024-02-16T08:44:27;11.56;80.76
6930;DHT22;3504;52.616;13.238;2024-02-16T08:49:31;11.63;80.67
6930;DHT22;3504;52.616;13.238;2024-02-16T08:54:31;11.74;80.52
6930;DHT22;3504;52.616;13.238;2024-02-16T08:59:32;11.79;79.92
6930;DHT22;3504;52.616;13.238;2024-02-16T09:04:34;11.92;79.50
6930;DHT22;3504;52.616;13.238;2024-02-16T09:09:34;12.12;79.55
6930;DHT22;3504;52.616;13.238;2024-02-16T09:14:35;12.45;79.31
6930;DHT22;3504;52.616;13.238;2024-02-16T09:19:35;12.57;77.76
6930;DHT22;3504;52.616;13.238;2024-02-16T09:24:36;12.69;77.24
6930;DHT22;3504;52.616;13.238;2024-02-16T09:29:37;12.81;77.67
6930;DHT22;3504;52.616;13.238;2024-02-16T09:34:38;12.91;76.49
6930;DHT22;3504;52.616;13.238;2024-02-16T09:39:38;12.97;76.17
6930;DHT22;3504;52.616;13.238;2024-02-16T09:44:39;13.08;76.30
6930;DHT22;3504;52.616;13.238;2024-02-16T09:49:40;13.11;76.40
6930;DHT22;3504;52.616;13.238;2024-02-16T09:54:40;13.25;75.99
6930;DHT22;3504;52.616;13.238;2024-02-16T09:59:41;13.31;75.35
6930;DHT22;3504;52.616;13.238;2024-02-16T10:04:41;13.42;75.35
6930;DHT22;3504;52.616;13.238;2024-02-16T10:09:42;13.45;74.48
6930;DHT22;3504;52.616;13.238;2024-02-16T10:14:54;13.69;74.54
6930;DHT22;3504;52.616;13.238;2024-02-16T10:19:57;13.69;73.53
6930;DHT22;3504;52.616;13.238;2024-02-16T10:25:08;13.66;73.82
6930;DHT22;3504;52.616;13.238;2024-02-16T10:30:12;13.59;73.61
6930;DHT22;3504;52.616;13.238;2024-02-16T10:35:13;13.49;73.47
6930;DHT22;3504;52.616;13.238;2024-02-16T10:40:19;13.48;73.29
6930;DHT22;3504;52.616;13.238;2024-02-16T10:45:20;13.51;73.88
6930;DHT22;3504;52.616;13.238;2024-02-16T10:50:21;13.58;73.05
6930;DHT22;3504;52.616;13.238;2024-02-16T10:55:22;13.89;72.80
6930;DHT22;3504;52.616;13.238;2024-02-16T11:00:24;14.07;71.36
6930;DHT22;3504;52.616;13.238;2024-02-16T11:05:41;14.06;71.71
6930;DHT22;3504;52.616;13.238;2024-02-16T11:11:00;14.24;71.04
6930;DHT22;3504;52.616;13.238;2024-02-16T11:16:06;14.79;71.12
6930;DHT22;3504;52.616;13.238;2024-02-16T11:21:15;15.05;69.77
6930;DHT22;3504;52.616;13.238;2024-02-16T11:26:17;15.12;69.25
6930;DHT22;3504;52.616;13.238;2024-02-16T11:31:18;15.13;68.64
6930;DHT22;3504;52.616;13.238;2024-02-16T11:36:18;15.00;67.99
6930;DHT22;3504;52.616;13.238;2024-02-16T11:41:19;14.93;69.50
6930;DHT22;3504;52.616;13.238;2024-02-16T11:46:22;14.98;68.67
6930;DHT22;3504;52.616;13.238;2024-02-16T11:51:25;14.93;68.94
6930;DHT22;3504;52.616;13.238;2024-02-16T11:56:26;14.86;68.75
6930;DHT22;3504;52.616;13.238;2024-02-16T12:01:27;14.77;69.39
6930;DHT22;3504;52.616;13.238;2024-02-16T12:06:29;14.72;70.40
6930;DHT22;3504;52.616;13.238;2024-02-16T12:11:30;14.69;70.65
6930;DHT22;3504;52.616;13.238;2024-02-16T12:16:30;14.75;71.11
6930;DHT22;3504;52.616;13.238;2024-02-16T12:21:31;14.81;71.78
6930;DHT22;3504;52.616;13.238;2024-02-16T12:26:32;14.82;70.63
6930;DHT22;3504;52.616;13.238;2024-02-16T12:31:32;14.86;70.97
6930;DHT22;3504;52.616;13.238;2024-02-16T12:36:39;14.99;71.27
6930;DHT22;3504;52.616;13.238;2024-02-16T12:41:42;15.05;69.88
6930;DHT22;3504;52.616;13.238;2024-02-16T12:46:44;15.16;70.19
6930;DHT22;3504;52.616;13.238;2024-02-16T12:51:46;15.22;69.61
6930;DHT22;3504;52.616;13.238;2024-02-16T12:56:46;15.29;69.83
6930;DHT22;3504;52.616;13.238;2024-02-16T13:01:51;15.30;69.72
6930;DHT22;3504;52.616;13.238;2024-02-16T13:06:54;15.35;69.26
6930;DHT22;3504;52.616;13.238;2024-02-16T13:11:54;15.49;68.73
6930;DHT22;3504;52.616;13.238;2024-02-16T13:16:55;15.66;68.78
6930;DHT22;3504;52.616;13.238;2024-02-16T13:21:55;15.88;68.18
6930;DHT22;3504;52.616;13.238;2024-02-16T13:26:56;16.07;66.62
6930;DHT22;3504;52.616;13.238;2024-02-16T13:31:57;16.17;66.05
6930;DHT22;3504;52.616;13.238;2024-02-16T13:36:57;16.21;66.67
6930;DHT22;3504;52.616;13.238;2024-02-16T13:41:58;16.24;66.66
6930;DHT22;3504;52.616;13.238;2024-02-16T13:46:58;16.22;66.68
6930;DHT22;3504;52.616;13.238;2024-02-16T13:51:59;16.14;66.79
6930;DHT22;3504;52.616;13.238;2024-02-16T13:56:59;16.04;66.77
6930;DHT22;3504;52.616;13.238;2024-02-16T14:02:01;15.97;66.63
6930;DHT22;3504;52.616;13.238;2024-02-16T14:07:02;15.98;67.81
6930;DHT22;3504;52.616;13.238;2024-02-16T14:12:02;15.92;67.52
6930;DHT22;3504;52.616;13.238;2024-02-16T14:17:03;15.85;67.05
6930;DHT22;3504;52.616;13.238;2024-02-16T14:22:04;15.80;66.77
6930;DHT22;3504;52.616;13.238;2024-02-16T14:27:07;15.68;67.61
6930;DHT22;3504;52.616;13.238;2024-02-16T14:32:07;15.63;67.58
6930;DHT22;3504;52.616;13.238;2024-02-16T14:37:09;15.57;67.92
6930;DHT22;3504;52.616;13.238;2024-02-16T14:42:09;15.47;67.31
6930;DHT22;3504;52.616;13.238;2024-02-16T14:47:10;15.46;67.89
6930;DHT22;3504;52.616;13.238;2024-02-16T14:52:10;15.42;68.09
6930;DHT22;3504;52.616;13.238;2024-02-16T14:57:11;15.36;68.38
6930;DHT22;3504;52.616;13.238;2024-02-16T15:02:12;15.30;68.34
6930;DHT22;3504;52.616;13.238;2024-02-16T15:07:12;15.26;68.50
6930;DHT22;3504;52.616;13.238;2024-02-16T15:12:13;15.26;68.84
6930;DHT22;3504;52.616;13.238;2024-02-16T15:17:16;15.18;69.35
6930;DHT22;3504;52.616;13.238;2024-02-16T15:22:20;15.13;69.44
6930;DHT22;3504;52.616;13.238;2024-02-16T15:27:21;15.10;69.38
6930;DHT22;3504;52.616;13.238;2024-02-16T15:32:21;15.06;69.61
6930;DHT22;3504;52.616;13.238;2024-02-16T15:37:22;15.05;69.65
6930;DHT22;3504;52.616;13.238;2024-02-16T15:42:27;14.99;69.18
6930;DHT22;3504;52.616;13.238;2024-02-16T15:47:30;14.96;69.77
6930;DHT22;3504;52.616;13.238;2024-02-16T15:52:30;14.93;69.79
6930;DHT22;3504;52.616;13.238;2024-02-16T15:57:31;14.88;69.35
6930;DHT22;3504;52.616;13.238;2024-02-16T16:02:32;14.84;69.77
6930;DHT22;3504;52.616;13.238;2024-02-16T16:07:33;14.81;69.84
6930;DHT22;3504;52.616;13.238;2024-02-16T16:12:33;14.77;69.98
6930;DHT22;3504;52.616;13.238;2024-02-16T16:17:34;14.69;70.08
6930;DHT22;3504;52.616;13.238;2024-02-16T16:22:34;14.67;69.87
6930;DHT22;3504;52.616;13.238;2024-02-16T16:27:36;14.65;70.19
6930;DHT22;3504;52.616;13.238;2024-02-16T16:32:36;14.61;70.57
6930;DHT22;3504;52.616;13.238;2024-02-16T16:37:37;14.61;70.82
6930;DHT22;3504;52.616;13.238;2024-02-16T16:42:37;14.54;71.08
6930;DHT22;3504;52.616;13.238;2024-02-16T16:47:38;14.45;72.29
6930;DHT22;3504;52.616;13.238;2024-02-16T16:52:38;14.38;74.49
6930;DHT22;3504;52.616;13.238;2024-02-16T16:57:40;14.26;75.97
6930;DHT22;3504;52.616;13.238;2024-02-16T17:02:40;14.12;77.81
6930;DHT22;3504;52.616;13.238;2024-02-16T17:07:41;13.90;79.32
6930;DHT22;3504;52.616;13.238;2024-02-16T17:12:41;13.75;80.00
6930;DHT22;3504;52.616;13.238;2024-02-16T17:17:44;13.66;80.63
6930;DHT22;3504;52.616;13.238;2024-02-16T17:22:48;13.55;81.50
6930;DHT22;3504;52.616;13.238;2024-02-16T17:27:50;13.49;81.41
6930;DHT22;3504;52.616;13.238;2024-02-16T17:32:50;13.46;81.47
6930;DHT22;3504;52.616;13.238;2024-02-16T17:37:51;13.39;82.03
6930;DHT22;3504;52.616;13.238;2024-02-16T17:42:53;13.28;82.51
6930;DHT22;3504;52.616;13.238;2024-02-16T17:47:55;13.22;82.74
6930;DHT22;3504;52.616;13.238;2024-02-16T17:52:59;13.20;82.74
6930;DHT22;3504;52.616;13.238;2024-02-16T17:57:59;13.15;83.15
6930;DHT22;3504;52.616;13.238;2024-02-16T18:03:00;13.07;83.48
6930;DHT22;3504;52.616;13.238;2024-02-16T18:08:00;13.01;83.59
6930;DHT22;3504;52.616;13.238;2024-02-16T18:13:01;13.00;83.75
6930;DHT22;3504;52.616;13.238;2024-02-16T18:18:05;12.96;84.16
6930;DHT22;3504;52.616;13.238;2024-02-16T18:23:05;12.94;84.18
6930;DHT22;3504;52.616;13.238;2024-02-16T18:28:06;12.94;84.10
6930;DHT22;3504;52.616;13.238;2024-02-16T18:33:06;12.94;84.38
6930;DHT22;3504;52.616;13.238;2024-02-16T18:38:07;12.88;84.62
6930;DHT22;3504;52.616;13.238;2024-02-16T18:43:07;12.91;85.02
6930;DHT22;3504;52.616;13.238;2024-02-16T18:48:11;12.90;85.13
6930;DHT22;3504;52.616;13.238;2024-02-16T18:53:11;12.91;85.41
6930;DHT22;3504;52.616;13.238;2024-02-16T18:58:12;12.90;85.29
6930;DHT22;3504;52.616;13.238;2024-02-16T19:03:13;12.93;85.41
6930;DHT22;3504;52.616;13.238;2024-02-16T19:08:16;12.96;85.38
6930;DHT22;3504;52.616;13.238;2024-02-16T19:13:20;12.97;85.80
6930;DHT22;3504;52.616;13.238;2024-02-16T19:18:21;12.97;85.78
6930;DHT22;3504;52.616;13.238;2024-02-16T19:23:21;12.99;85.98
6930;DHT22;3504;52.616;13.238;2024-02-16T19:28:22;12.99;86.01
6930;DHT22;3504;52.616;13.238;2024-02-16T19:33:23;13.00;86.16
6930;DHT22;3504;52.616;13.238;2024-02-16T19:38:23;13.00;86.21
6930;DHT22;3504;52.616;13.238;2024-02-16T19:43:24;13.01;86.43
6930;DHT22;3504;52.616;13.238;2024-02-16T19:48:25;13.01;86.46
6930;DHT22;3504;52.616;13.238;2024-02-16T19:53:25;12.99;86.90
6930;DHT22;3504;52.616;13.238;2024-02-16T19:58:27;12.99;87.10
6930;DHT22;3504;52.616;13.238;2024-02-16T20:03:28;13.00;86.98
6930;DHT22;3504;52.616;13.238;2024-02-16T20:08:32;13.00;87.27
6930;DHT22;3504;52.616;13.238;2024-02-16T20:13:33;13.03;87.48
6930;DHT22;3504;52.616;13.238;2024-02-16T20:18:34;12.99;87.74
6930;DHT22;3504;52.616;13.238;2024-02-16T20:23:35;12.96;87.89
6930;DHT22;3504;52.616;13.238;2024-02-16T20:28:36;12.94;88.17
6930;DHT22;3504;52.616;13.238;2024-02-16T20:33:36;12.93;88.20
6930;DHT22;3504;52.616;13.238;2024-02-16T20:38:37;12.96;88.15
6930;DHT22;3504;52.616;13.238;2024-02-16T20:43:39;12.91;88.57
6930;DHT22;3504;52.616;13.238;2024-02-16T20:48:39;12.90;88.72
6930;DHT22;3504;52.616;13.238;2024-02-16T20:53:40;12.88;89.09
6930;DHT22;3504;52.616;13.238;2024-02-16T20:58:40;12.85;89.12
6930;DHT22;3504;52.616;13.238;2024-02-16T21:03:41;12.84;89.05
6930;DHT22;3504;52.616;13.238;2024-02-16T21:08:41;12.83;89.39
6930;DHT22;3504;52.616;13.238;2024-02-16T21:13:43;12.81;89.39
6930;DHT22;3504;52.616;13.238;2024-02-16T21:18:44;12.80;89.29
6930;DHT22;3504;52.616;13.238;2024-02-16T21:23:45;12.79;89.57
6930;DHT22;3504;52.616;13.238;2024-02-16T21:28:45;12.79;89.55
6930;DHT22;3504;52.616;13.238;2024-02-16T21:33:46;12.77;89.43
6930;DHT22;3504;52.616;13.238;2024-02-16T21:38:47;12.77;89.52
6930;DHT22;3504;52.616;13.238;2024-02-16T21:43:48;12.73;89.63
6930;DHT22;3504;52.616;13.238;2024-02-16T21:48:50;12.69;89.74
6930;DHT22;3504;52.616;13.238;2024-02-16T21:53:50;12.67;89.78
6930;DHT22;3504;52.616;13.238;2024-02-16T21:58:52;12.67;89.77
6930;DHT22;3504;52.616;13.238;2024-02-16T22:03:53;12.63;89.76
6930;DHT22;3504;52.616;13.238;2024-02-16T22:08:54;12.62;89.81
6930;DHT22;3504;52.616;13.238;2024-02-16T22:13:54;12.60;89.88
6930;DHT22;3504;52.616;13.238;2024-02-16T22:18:55;12.62;89.68
6930;DHT22;3504;52.616;13.238;2024-02-16T22:23:55;12.57;89.65
6930;DHT22;3504;52.616;13.238;2024-02-16T22:29:00;12.60;89.53
6930;DHT22;3504;52.616;13.238;2024-02-16T22:34:00;12.57;89.44
6930;DHT22;3504;52.616;13.238;2024-02-16T22:39:01;12.59;89.50
6930;DHT22;3504;52.616;13.238;2024-02-16T22:44:02;12.49;89.77
6930;DHT22;3504;52.616;13.238;2024-02-16T22:49:03;12.45;89.50
6930;DHT22;3504;52.616;13.238;2024-02-16T22:54:04;12.42;89.38
6930;DHT22;3504;52.616;13.238;2024-02-16T22:59:04;12.40;89.09
6930;DHT22;3504;52.616;13.238;2024-02-16T23:04:05;12.38;88.93
6930;DHT22;3504;52.616;13.238;2024-02-16T23:09:08;12.32;88.63
6930;DHT22;3504;52.616;13.238;2024-02-16T23:14:09;12.30;88.54
6930;DHT22;3504;52.616;13.238;2024-02-16T23:19:10;12.22;88.30
6930;DHT22;3504;52.616;13.238;2024-02-16T23:24:10;12.22;88.56
6930;DHT22;3504;52.616;13.238;2024-02-16T23:29:11;12.14;88.31
6930;DHT22;3504;52.616;13.238;2024-02-16T23:34:11;12.09;88.36
6930;DHT22;3504;52.616;13.238;2024-02-16T23:39:14;12.06;88.24
6930;DHT22;3504;52.616;13.238;2024-02-16T23:44:15;12.04;88.20
6930;DHT22;3504;52.616;13.238;2024-02-16T23:49:15;11.98;87.95
6930;DHT22;3504;52.616;13.238;2024-02-16T23:54:16;11.92;87.64
6930;DHT22;3504;52.616;13.238;2024-02-16T23:59:16;11.84;87.24
